Time;durP1;ratioP1;P1;durP2;ratioP2;P2;SDS_P1;SDS_P2;PMS_P1;PMS_P2;Temp;Humidity;BMP_temperature;BMP_pressure;BME280_temperature;BME280_humidity;BME280_pressure;Samples;Min_cycle;Max_cycle;Signal;HPM_P1;HPM_P2
2022/04/03 00:01:37;;;;;;;12.07;10.75;;;0.30;99.90;;;;;;5010429;28;20037;-80
2022/04/03 00:04:03;;;;;;;12.65;11.32;;;0.30;99.90;;;;;;5010187;28;20081;-76
2022/04/03 00:06:28;;;;;;;13.32;11.57;;;0.30;99.90;;;;;;5010409;28;20508;-79
2022/04/03 00:08:56;;;;;;;13.23;11.82;;;0.30;99.90;;;;;;4994669;28;20048;-70
2022/04/03 00:11:22;;;;;;;14.52;10.25;;;0.30;99.90;;;;;;5010989;28;20096;-79
2022/04/03 00:13:49;;;;;;;11.77;10.45;;;0.20;99.90;;;;;;5010731;28;20084;-78
2022/04/03 00:16:15;;;;;;;11.85;10.23;;;0.20;99.90;;;;;;5011012;28;20046;-71
2022/04/03 00:18:41;;;;;;;11.77;10.27;;;0.10;99.90;;;;;;5012336;28;20069;-75
2022/04/03 00:21:07;;;;;;;11.23;9.93;;;0.00;99.90;;;;;;5012353;28;20068;-80
2022/04/03 00:23:33;;;;;;;11.82;9.70;;;0.00;99.90;;;;;;5010652;28;20053;-77
2022/04/03 00:25:59;;;;;;;12.30;9.35;;;0.00;99.90;;;;;;5010365;28;20041;-80
2022/04/03 00:28:28;;;;;;;10.52;9.00;;;0.00;99.90;;;;;;5019144;28;20048;-72
2022/04/03 00:30:54;;;;;;;11.55;9.02;;;0.00;99.90;;;;;;5030754;28;20041;-77
2022/04/03 00:33:19;;;;;;;11.85;9.57;;;0.00;99.90;;;;;;5030917;28;20102;-78
2022/04/03 00:35:45;;;;;;;11.88;9.68;;;-0.10;99.90;;;;;;5036677;28;20037;-70
2022/04/03 00:38:11;;;;;;;12.00;9.25;;;0.00;99.90;;;;;;5033359;28;20029;-73
2022/04/03 00:40:37;;;;;;;11.35;9.05;;;0.00;99.90;;;;;;5033636;28;20037;-79
2022/04/03 00:43:03;;;;;;;11.90;9.00;;;0.00;99.90;;;;;;5035356;28;20087;-80
2022/04/03 00:45:29;;;;;;;12.13;9.63;;;0.00;99.90;;;;;;5033694;28;20045;-69
2022/04/03 00:47:56;;;;;;;10.93;9.00;;;0.00;99.90;;;;;;5034771;28;20045;-80
2022/04/03 00:50:23;;;;;;;10.00;8.80;;;0.00;99.90;;;;;;5034643;28;20041;-79
2022/04/03 00:52:49;;;;;;;12.52;9.63;;;0.00;99.90;;;;;;5035818;28;20045;-79
2022/04/03 00:55:15;;;;;;;9.40;8.32;;;0.00;99.90;;;;;;5035816;28;20037;-80
2022/04/03 00:57:44;;;;;;;10.23;8.18;;;0.00;99.90;;;;;;5035729;28;20049;-72
2022/04/03 01:00:14;;;;;;;9.20;8.25;;;0.00;99.90;;;;;;5035769;28;20045;-79
2022/04/03 01:02:41;;;;;;;9.18;8.07;;;0.00;99.90;;;;;;5035756;28;20045;-80
2022/04/03 01:05:07;;;;;;;9.88;8.40;;;0.00;99.90;;;;;;5035545;28;20030;-80
2022/04/03 01:07:36;;;;;;;7.85;7.00;;;0.00;99.90;;;;;;5035460;28;20095;-71
2022/04/03 01:10:03;;;;;;;8.93;7.20;;;0.00;99.90;;;;;;5035372;28;20048;-80
2022/04/03 01:12:29;;;;;;;7.55;6.55;;;0.00;99.90;;;;;;5035260;28;20053;-69
2022/04/03 01:14:55;;;;;;;7.45;6.63;;;0.00;99.90;;;;;;5035653;28;20037;-79
2022/04/03 01:17:20;;;;;;;6.68;5.70;;;-0.10;99.90;;;;;;5035510;28;20534;-80
2022/04/03 01:19:46;;;;;;;7.43;6.47;;;-0.10;99.90;;;;;;5035263;28;20493;-71
2022/04/03 01:22:12;;;;;;;7.75;6.90;;;-0.10;99.90;;;;;;5035027;28;20061;-79
2022/04/03 01:24:43;;;;;;;9.40;7.13;;;-0.10;99.90;;;;;;5035704;28;20076;-78
2022/04/03 01:27:08;;;;;;;7.30;6.60;;;-0.20;99.90;;;;;;5035695;28;20048;-69
2022/04/03 01:29:34;;;;;;;8.95;6.93;;;-0.20;99.90;;;;;;5035452;28;20037;-76
2022/04/03 01:32:00;;;;;;;8.73;7.72;;;-0.20;99.90;;;;;;5035038;28;20076;-79
2022/04/03 01:34:26;;;;;;;7.57;6.78;;;-0.30;99.90;;;;;;5035396;28;20301;-70
2022/04/03 01:36:51;;;;;;;7.90;6.90;;;-0.30;99.90;;;;;;5035178;28;20126;-79
2022/04/03 01:39:18;;;;;;;8.18;6.75;;;-0.30;99.90;;;;;;5035348;28;20044;-79
2022/04/03 01:41:44;;;;;;;9.07;7.85;;;-0.30;99.90;;;;;;5035401;28;20037;-77
2022/04/03 01:44:11;;;;;;;9.73;7.95;;;-0.20;99.90;;;;;;5035449;28;20041;-79
2022/04/03 01:46:37;;;;;;;9.35;7.70;;;-0.20;99.90;;;;;;5035249;28;20044;-75
2022/04/03 01:49:04;;;;;;;9.18;7.75;;;-0.30;99.90;;;;;;5034983;28;20052;-70
2022/04/03 01:51:32;;;;;;;9.55;7.47;;;-0.30;99.90;;;;;;5035468;28;20038;-79
2022/04/03 01:53:58;;;;;;;9.55;7.82;;;-0.30;99.90;;;;;;5035546;28;20073;-79
2022/04/03 01:56:24;;;;;;;9.32;7.80;;;-0.30;99.90;;;;;;5035587;28;20080;-69
2022/04/03 01:58:50;;;;;;;9.10;7.95;;;-0.40;99.90;;;;;;5036546;28;20049;-74
2022/04/03 02:01:16;;;;;;;10.40;8.35;;;-0.30;99.90;;;;;;5036724;28;20633;-71
2022/04/03 02:03:41;;;;;;;9.07;8.15;;;-0.30;99.90;;;;;;5037396;28;20064;-79
2022/04/03 02:06:07;;;;;;;8.88;7.95;;;-0.30;99.90;;;;;;5037934;28;20402;-78
2022/04/03 02:08:33;;;;;;;9.90;8.77;;;-0.30;99.90;;;;;;5034082;28;20037;-69
2022/04/03 02:10:59;;;;;;;10.52;8.88;;;-0.30;99.90;;;;;;5035071;28;20399;-70
2022/04/03 02:13:25;;;;;;;13.38;9.63;;;-0.30;99.90;;;;;;5039003;28;20053;-79
2022/04/03 02:15:51;;;;;;;10.98;8.40;;;-0.20;99.90;;;;;;5039150;28;20103;-77
2022/04/03 02:18:17;;;;;;;11.50;9.32;;;-0.30;99.90;;;;;;5038933;28;20277;-79
2022/04/03 02:20:44;;;;;;;10.00;8.73;;;-0.20;99.90;;;;;;5039483;28;20041;-73
2022/04/03 02:23:10;;;;;;;11.63;8.90;;;-0.30;99.90;;;;;;5038311;28;20037;-76
2022/04/03 02:25:37;;;;;;;12.00;9.65;;;-0.30;99.90;;;;;;5039800;28;20034;-78
2022/04/03 02:28:04;;;;;;;12.02;9.07;;;-0.30;99.90;;;;;;5038398;28;20413;-69
2022/04/03 02:30:30;;;;;;;11.63;9.60;;;-0.30;99.90;;;;;;5037763;28;20048;-76
2022/04/03 02:32:56;;;;;;;10.35;9.15;;;-0.30;99.90;;;;;;5040912;28;20423;-71
2022/04/03 02:35:22;;;;;;;10.55;9.38;;;-0.30;99.90;;;;;;5037702;28;20022;-78
2022/04/03 02:37:48;;;;;;;10.82;9.43;;;-0.30;99.90;;;;;;5041117;28;20112;-78
2022/04/03 02:40:16;;;;;;;11.18;9.38;;;-0.40;99.90;;;;;;5038329;28;20076;-76
2022/04/03 02:42:42;;;;;;;12.85;10.23;;;-0.30;99.90;;;;;;5036677;28;20037;-78
2022/04/03 02:45:13;;;;;;;11.25;9.50;;;-0.30;99.90;;;;;;5040995;28;20044;-73
2022/04/03 02:47:39;;;;;;;11.70;9.60;;;-0.40;99.90;;;;;;5037856;28;20112;-78
2022/04/03 02:50:06;;;;;;;11.00;9.82;;;-0.40;99.90;;;;;;5058982;28;20057;-75
2022/04/03 02:52:32;;;;;;;11.57;10.38;;;-0.40;99.90;;;;;;5060785;28;20049;-78
2022/04/03 02:54:58;;;;;;;11.70;10.40;;;-0.40;99.90;;;;;;5060757;28;20118;-78
2022/04/03 02:57:24;;;;;;;12.25;9.82;;;-0.40;99.90;;;;;;5059763;28;20110;-71
2022/04/03 02:59:50;;;;;;;11.25;9.80;;;-0.40;99.90;;;;;;5057547;28;20033;-69
2022/04/03 03:02:16;;;;;;;14.23;10.75;;;-0.40;99.90;;;;;;5060824;28;20119;-77
2022/04/03 03:04:42;;;;;;;13.13;10.73;;;-0.40;99.90;;;;;;5044217;28;20057;-69
2022/04/03 03:07:09;;;;;;;15.10;10.60;;;-0.40;99.90;;;;;;5042493;28;20061;-78
2022/04/03 03:09:35;;;;;;;12.88;10.77;;;-0.40;99.90;;;;;;5041186;28;20052;-78
2022/04/03 03:12:01;;;;;;;13.30;11.40;;;-0.40;99.90;;;;;;5040770;28;20048;-73
2022/04/03 03:14:27;;;;;;;14.55;11.68;;;-0.40;99.90;;;;;;5039369;28;20105;-70
2022/04/03 03:16:54;;;;;;;14.23;11.55;;;-0.40;99.90;;;;;;5039107;28;20041;-74
2022/04/03 03:19:20;;;;;;;14.30;12.13;;;-0.40;99.90;;;;;;5039970;28;20056;-78
2022/04/03 03:21:46;;;;;;;17.15;12.60;;;-0.40;99.90;;;;;;5038515;28;20107;-77
2022/04/03 03:24:12;;;;;;;12.35;11.05;;;-0.40;99.90;;;;;;5039457;28;20037;-77
2022/04/03 03:26:38;;;;;;;16.17;10.80;;;-0.40;99.90;;;;;;5039498;28;20045;-78
2022/04/03 03:29:05;;;;;;;14.73;12.18;;;-0.40;99.90;;;;;;5038440;28;20117;-77
2022/04/03 03:31:31;;;;;;;15.05;12.27;;;-0.50;99.90;;;;;;5038352;28;20124;-70
2022/04/03 03:33:57;;;;;;;13.30;11.93;;;-0.50;99.90;;;;;;5037036;28;20045;-73
2022/04/03 03:36:23;;;;;;;15.68;12.35;;;-0.50;99.90;;;;;;5037485;28;20119;-77
2022/04/03 03:38:49;;;;;;;18.83;12.38;;;-0.50;99.90;;;;;;5036721;28;20037;-77
2022/04/03 03:41:15;;;;;;;16.10;12.68;;;-0.50;99.90;;;;;;5035980;28;20030;-70
2022/04/03 03:43:42;;;;;;;15.00;12.15;;;-0.50;99.90;;;;;;5034991;28;20481;-74
2022/04/03 03:46:10;;;;;;;17.10;12.68;;;-0.50;99.90;;;;;;5034740;28;20041;-77
2022/04/03 03:48:37;;;;;;;15.32;12.75;;;-0.50;99.90;;;;;;5034847;28;20069;-77
2022/04/03 03:51:04;;;;;;;17.60;12.23;;;-0.50;99.90;;;;;;5033936;28;20041;-76
2022/04/03 03:53:30;;;;;;;17.60;12.30;;;-0.50;99.90;;;;;;5035286;28;20517;-78
2022/04/03 03:55:56;;;;;;;14.75;12.18;;;-0.50;99.90;;;;;;5035619;28;20033;-78
2022/04/03 03:58:22;;;;;;;16.02;12.32;;;-0.50;99.90;;;;;;5034893;28;20046;-75
2022/04/03 04:00:48;;;;;;;15.82;12.48;;;-0.50;99.90;;;;;;5034847;28;20030;-77
2022/04/03 04:03:14;;;;;;;16.45;12.23;;;-0.50;99.90;;;;;;5034066;28;20069;-77
2022/04/03 04:05:40;;;;;;;15.07;12.23;;;-0.50;99.90;;;;;;5034179;28;20052;-77
2022/04/03 04:08:07;;;;;;;14.30;12.05;;;-0.50;99.90;;;;;;5034714;28;20049;-77
2022/04/03 04:10:33;;;;;;;14.38;12.07;;;-0.50;99.90;;;;;;5038422;28;20044;-71
2022/04/03 04:12:59;;;;;;;17.13;12.52;;;-0.50;99.90;;;;;;5039121;28;20060;-77
2022/04/03 04:15:29;;;;;;;18.15;11.68;;;-0.60;99.90;;;;;;5038536;28;20049;-77
2022/04/03 04:17:55;;;;;;;15.85;12.55;;;-0.60;99.90;;;;;;5038367;28;20551;-77
2022/04/03 04:20:22;;;;;;;14.90;11.98;;;-0.60;99.90;;;;;;5036434;28;20049;-77
2022/04/03 04:22:49;;;;;;;14.88;11.65;;;-0.60;99.90;;;;;;5039297;28;20138;-76
2022/04/03 04:25:16;;;;;;;13.73;11.25;;;-0.60;99.90;;;;;;5041852;28;20037;-77
2022/04/03 04:27:44;;;;;;;15.40;12.55;;;-0.60;99.90;;;;;;5040522;28;20673;-78
2022/04/03 04:30:11;;;;;;;15.20;12.38;;;-0.60;99.90;;;;;;5040180;28;20070;-77
2022/04/03 04:32:37;;;;;;;14.35;12.40;;;-0.60;99.90;;;;;;5040245;28;20041;-76
2022/04/03 04:35:04;;;;;;;15.35;12.48;;;-0.70;99.90;;;;;;5038986;28;20052;-76
2022/04/03 04:37:31;;;;;;;13.90;11.57;;;-0.60;99.90;;;;;;5039763;28;20033;-69
2022/04/03 04:39:57;;;;;;;14.48;11.85;;;-0.70;99.90;;;;;;5036238;28;20037;-76
2022/04/03 04:42:22;;;;;;;15.27;12.55;;;-0.70;99.90;;;;;;5036036;28;20626;-77
2022/04/03 04:44:48;;;;;;;14.00;11.52;;;-0.70;99.90;;;;;;5035985;28;20056;-71
2022/04/03 04:47:14;;;;;;;15.70;10.85;;;-0.70;99.90;;;;;;5035870;28;20051;-73
2022/04/03 04:49:40;;;;;;;16.50;11.82;;;-0.60;99.90;;;;;;5050174;28;20040;-77
2022/04/03 04:52:06;;;;;;;13.48;11.23;;;-0.60;99.90;;;;;;5055034;28;20052;-69
2022/04/03 04:54:32;;;;;;;12.52;10.50;;;-0.70;99.90;;;;;;5055298;28;20110;-70
2022/04/03 04:56:58;;;;;;;13.38;10.63;;;-0.60;99.90;;;;;;5055498;28;20028;-77
2022/04/03 04:59:24;;;;;;;14.40;12.07;;;-0.60;99.90;;;;;;5047385;28;20123;-71
2022/04/03 05:01:50;;;;;;;13.65;11.27;;;-0.70;99.90;;;;;;5035660;28;20117;-78
2022/04/03 05:04:16;;;;;;;14.20;11.10;;;-0.70;99.90;;;;;;5034023;28;20057;-77
2022/04/03 05:06:43;;;;;;;14.18;10.93;;;-0.70;99.90;;;;;;5035043;28;20462;-77
2022/04/03 05:09:09;;;;;;;12.80;11.48;;;-0.70;99.90;;;;;;5037567;28;20073;-69
2022/04/03 05:11:39;;;;;;;15.95;11.10;;;-0.70;99.90;;;;;;5036537;28;20095;-77
2022/04/03 05:14:06;;;;;;;14.80;11.82;;;-0.70;99.90;;;;;;5035312;28;20461;-70
2022/04/03 05:16:32;;;;;;;13.60;11.13;;;-0.70;99.90;;;;;;5051773;28;20390;-75
2022/04/03 05:18:58;;;;;;;14.35;11.80;;;-0.70;99.90;;;;;;5033714;28;20045;-77
2022/04/03 05:21:24;;;;;;;14.13;11.45;;;-0.70;99.90;;;;;;5035232;28;20042;-76
2022/04/03 05:23:50;;;;;;;16.25;11.80;;;-0.60;99.90;;;;;;5035409;28;20037;-69
2022/04/03 05:26:19;;;;;;;14.77;11.73;;;-0.60;99.90;;;;;;5034894;28;20124;-71
2022/04/03 05:28:45;;;;;;;15.82;10.80;;;-0.60;99.90;;;;;;5036043;28;20050;-70
2022/04/03 05:31:11;;;;;;;12.52;11.07;;;-0.60;99.90;;;;;;5042218;28;20036;-69
2022/04/03 05:33:37;;;;;;;14.57;11.73;;;-0.60;99.90;;;;;;5055071;28;20645;-77
2022/04/03 05:36:04;;;;;;;12.02;10.63;;;-0.50;99.90;;;;;;5055035;28;20037;-71
2022/04/03 05:38:30;;;;;;;12.57;10.82;;;-0.50;99.90;;;;;;5054916;28;20879;-77
2022/04/03 05:40:56;;;;;;;14.23;10.90;;;-0.50;99.90;;;;;;5054798;28;20048;-71
2022/04/03 05:43:22;;;;;;;20.33;12.07;;;-0.50;99.90;;;;;;5053151;28;20116;-77
2022/04/03 05:45:48;;;;;;;13.48;11.68;;;-0.40;99.90;;;;;;5034911;28;20111;-77
2022/04/03 05:48:14;;;;;;;15.35;11.70;;;-0.40;99.90;;;;;;5034799;28;20050;-77
2022/04/03 05:50:39;;;;;;;15.55;12.40;;;-0.40;99.90;;;;;;5034921;28;20120;-74
2022/04/03 05:53:06;;;;;;;17.15;12.60;;;-0.40;99.90;;;;;;5034753;28;20143;-74
2022/04/03 05:55:32;;;;;;;16.15;13.13;;;-0.40;99.90;;;;;;5034895;28;20125;-77
2022/04/03 05:57:58;;;;;;;16.08;12.85;;;-0.40;99.90;;;;;;5034817;28;20047;-77
2022/04/03 06:00:25;;;;;;;15.32;12.35;;;-0.30;99.90;;;;;;5034662;28;20129;-77
2022/04/03 06:03:01;;;;;;;16.13;12.93;;;-0.40;99.90;;;;;;5034646;28;20052;-74
2022/04/03 06:05:31;;;;;;;15.52;12.90;;;-0.40;99.90;;;;;;5034365;28;20097;-77
2022/04/03 06:07:57;;;;;;;16.10;13.13;;;-0.30;99.90;;;;;;5034469;28;20052;-72
2022/04/03 06:10:25;;;;;;;14.52;12.50;;;-0.30;99.90;;;;;;5032789;28;20041;-72
2022/04/03 06:13:00;;;;;;;13.93;12.23;;;-0.30;99.90;;;;;;5031376;28;20508;-76
2022/04/03 06:15:33;;;;;;;14.70;12.73;;;-0.30;99.90;;;;;;5032648;28;20167;-78
2022/04/03 06:18:03;;;;;;;16.83;12.77;;;-0.30;99.90;;;;;;5034054;28;20049;-77
2022/04/03 06:20:29;;;;;;;;;;;-0.20;99.90;;;;;;5034673;28;20039;-77
2022/04/03 06:22:56;;;;;;;18.55;12.93;;;-0.20;99.90;;;;;;5034233;28;20004;-75
2022/04/03 06:25:22;;;;;;;15.70;12.85;;;-0.20;99.90;;;;;;5034168;28;20083;-70
2022/04/03 06:27:48;;;;;;;15.15;12.65;;;-0.20;99.90;;;;;;5034079;28;20037;-77
2022/04/03 06:30:14;;;;;;;15.35;13.02;;;-0.20;99.90;;;;;;5034187;28;20041;-77
2022/04/03 06:32:40;;;;;;;16.90;13.68;;;-0.20;99.90;;;;;;5033239;28;20088;-77
2022/04/03 06:35:08;;;;;;;15.55;12.95;;;-0.10;99.90;;;;;;5034014;28;20609;-73
2022/04/03 06:37:34;;;;;;;15.65;12.23;;;-0.10;99.90;;;;;;5033885;28;20033;-77
2022/04/03 06:40:00;;;;;;;14.27;12.20;;;-0.10;99.90;;;;;;5034106;28;20468;-77
2022/04/03 06:42:29;;;;;;;19.67;13.48;;;-0.10;99.90;;;;;;5033813;28;20069;-77
2022/04/03 06:44:55;;;;;;;15.23;12.75;;;-0.10;99.90;;;;;;5033775;28;20033;-77
2022/04/03 06:47:21;;;;;;;18.05;13.15;;;0.00;99.90;;;;;;5033937;28;20044;-77
2022/04/03 06:49:47;;;;;;;15.40;12.18;;;0.00;99.90;;;;;;5033899;28;20079;-71
2022/04/03 06:52:13;;;;;;;16.05;11.98;;;0.00;99.90;;;;;;5033345;28;20568;-77
2022/04/03 06:54:39;;;;;;;15.52;12.80;;;0.00;99.90;;;;;;5033505;28;20128;-77
2022/04/03 06:57:05;;;;;;;16.35;12.75;;;0.00;99.90;;;;;;5033530;28;20124;-76
2022/04/03 06:59:30;;;;;;;16.48;13.55;;;0.00;99.90;;;;;;5033570;28;20085;-77
2022/04/03 07:01:56;;;;;;;16.30;12.45;;;0.00;99.90;;;;;;5033579;28;20382;-77
2022/04/03 07:04:22;;;;;;;15.48;12.32;;;0.00;99.90;;;;;;5033427;28;20053;-76
2022/04/03 07:06:48;;;;;;;16.10;13.60;;;0.10;99.90;;;;;;5033121;28;20524;-69
2022/04/03 07:09:14;;;;;;;16.38;13.73;;;0.00;99.90;;;;;;5033231;28;20087;-76
2022/04/03 07:11:40;;;;;;;17.75;14.02;;;0.10;99.90;;;;;;5033419;28;20476;-76
2022/04/03 07:14:06;;;;;;;17.15;13.25;;;0.00;99.90;;;;;;5033177;28;20057;-74
2022/04/03 07:16:32;;;;;;;17.58;14.00;;;0.00;99.90;;;;;;5031851;28;20375;-76
2022/04/03 07:18:57;;;;;;;18.25;14.02;;;0.10;99.90;;;;;;5033208;28;20776;-72
2022/04/03 07:21:24;;;;;;;17.60;13.45;;;0.10;99.90;;;;;;5033091;28;20547;-71
2022/04/03 07:23:49;;;;;;;17.95;13.68;;;0.10;99.90;;;;;;5033090;28;20107;-75
2022/04/03 07:26:15;;;;;;;17.77;14.40;;;0.10;99.90;;;;;;5032931;28;20517;-72
2022/04/03 07:28:41;;;;;;;19.67;15.00;;;0.10;99.90;;;;;;5032980;28;20049;-74
2022/04/03 07:31:10;;;;;;;20.23;14.75;;;0.10;99.90;;;;;;5033127;28;20592;-76
2022/04/03 07:33:36;;;;;;;18.23;15.20;;;0.20;99.90;;;;;;5033103;28;20092;-75
2022/04/03 07:36:02;;;;;;;16.50;14.38;;;0.20;99.90;;;;;;5032963;28;20462;-72
2022/04/03 07:38:28;;;;;;;16.55;13.43;;;0.30;99.90;;;;;;5032806;28;20073;-73
2022/04/03 07:40:54;;;;;;;19.20;14.07;;;0.30;99.90;;;;;;5033130;28;20068;-69
2022/04/03 07:43:21;;;;;;;18.38;14.70;;;0.30;99.90;;;;;;5032686;28;20046;-73
2022/04/03 07:45:49;;;;;;;18.05;14.48;;;0.40;99.90;;;;;;5033124;28;20025;-74
2022/04/03 07:48:16;;;;;;;20.60;15.60;;;0.40;99.90;;;;;;5032944;28;20044;-69
2022/04/03 07:50:42;;;;;;;17.23;14.13;;;0.50;99.90;;;;;;5032679;28;20136;-71
2022/04/03 07:53:08;;;;;;;17.20;13.88;;;0.50;99.90;;;;;;5046509;28;20578;-75
2022/04/03 07:55:34;;;;;;;17.23;14.70;;;0.50;99.90;;;;;;5052781;28;20586;-72
2022/04/03 07:58:00;;;;;;;16.17;13.35;;;0.70;99.90;;;;;;5052683;28;20064;-76
2022/04/03 08:00:26;;;;;;;23.52;13.98;;;0.60;99.90;;;;;;5050917;28;20037;-68
2022/04/03 08:02:52;;;;;;;19.55;15.20;;;0.80;99.90;;;;;;5050781;28;20029;-73
2022/04/03 08:05:17;;;;;;;20.00;13.48;;;0.90;99.90;;;;;;5050372;28;20052;-74
2022/04/03 08:07:45;;;;;;;20.42;13.85;;;0.70;99.90;;;;;;5051493;28;20170;-73
2022/04/03 08:10:14;;;;;;;18.10;14.65;;;1.60;99.90;;;;;;5050880;28;20044;-73
2022/04/03 08:12:42;;;;;;;17.50;13.18;;;1.80;99.90;;;;;;5032402;28;20146;-75
2022/04/03 08:15:12;;;;;;;17.65;14.20;;;1.50;99.90;;;;;;5032225;28;20128;-75
2022/04/03 08:17:39;;;;;;;17.50;13.88;;;1.20;99.90;;;;;;5033987;28;20469;-75
2022/04/03 08:20:18;;;;;;;16.40;13.10;;;1.00;99.90;;;;;;5030432;28;20068;-77
2022/04/03 08:22:48;;;;;;;17.45;13.68;;;1.00;99.90;;;;;;5030580;28;20064;-72
2022/04/03 08:25:15;;;;;;;16.20;13.80;;;0.90;99.90;;;;;;5030202;28;20040;-77
2022/04/03 08:27:52;;;;;;;17.05;13.63;;;0.90;99.90;;;;;;5030574;28;20616;-73
2022/04/03 08:30:19;;;;;;;21.10;14.98;;;0.70;99.90;;;;;;5029969;28;20041;-77
2022/04/03 08:32:45;;;;;;;20.13;13.82;;;0.80;99.90;;;;;;5030332;28;20128;-77
2022/04/03 08:35:15;;;;;;;17.15;14.23;;;0.90;99.90;;;;;;5030196;28;20482;-76
2022/04/03 08:37:42;;;;;;;17.67;14.00;;;0.90;99.90;;;;;;5030295;28;20408;-77
2022/04/03 08:40:09;;;;;;;20.65;14.57;;;0.80;99.90;;;;;;5030189;28;20037;-77
2022/04/03 08:42:35;;;;;;;19.08;14.55;;;1.10;99.90;;;;;;5030347;28;20048;-78
2022/04/03 08:45:02;;;;;;;17.90;13.57;;;1.20;99.90;;;;;;5029871;28;20076;-72
2022/04/03 08:47:30;;;;;;;29.55;14.30;;;1.20;99.90;;;;;;5030267;28;20370;-76
2022/04/03 08:50:01;;;;;;;16.52;12.98;;;1.30;99.90;;;;;;5030055;28;20061;-69
2022/04/03 08:52:27;;;;;;;17.42;13.95;;;1.30;99.90;;;;;;5030035;28;20045;-76
2022/04/03 08:54:54;;;;;;;18.20;13.30;;;1.50;99.90;;;;;;5031604;28;20041;-81
2022/04/03 08:57:21;;;;;;;19.08;12.95;;;1.70;99.90;;;;;;5033330;28;20077;-72
2022/04/03 08:59:47;;;;;;;14.77;13.05;;;1.70;99.90;;;;;;5033717;28;20428;-74
2022/04/03 09:02:13;;;;;;;16.60;13.65;;;1.80;99.90;;;;;;5033260;28;20049;-78
2022/04/03 09:04:39;;;;;;;16.50;13.50;;;2.20;99.90;;;;;;5033584;28;20037;-70
2022/04/03 09:07:05;;;;;;;17.45;13.40;;;2.40;99.90;;;;;;5034885;28;20041;-83
2022/04/03 09:09:31;;;;;;;15.98;12.32;;;2.40;99.90;;;;;;5033587;28;20065;-85
2022/04/03 09:12:16;;;;;;;17.63;13.40;;;2.50;99.90;;;;;;5032306;28;20072;-71
2022/04/03 09:14:55;;;;;;;18.23;12.82;;;2.30;99.90;;;;;;5034050;28;20099;-84
2022/04/03 09:17:33;;;;;;;19.25;13.52;;;2.40;99.90;;;;;;5033158;28;20099;-82
2022/04/03 09:20:05;;;;;;;16.85;13.25;;;2.60;99.90;;;;;;5030815;28;20197;-82
2022/04/03 09:22:35;;;;;;;14.07;11.88;;;2.90;99.90;;;;;;5032932;28;20041;-70
2022/04/03 09:25:10;;;;;;;16.65;13.10;;;2.60;99.90;;;;;;5032180;28;20469;-70
2022/04/03 09:27:46;;;;;;;17.88;11.85;;;2.80;99.90;;;;;;5030396;28;20033;-81
2022/04/03 09:30:14;;;;;;;16.23;13.38;;;2.70;99.90;;;;;;5028389;28;20107;-78
2022/04/03 09:32:50;;;;;;;14.18;11.18;;;3.30;99.90;;;;;;5012700;28;20085;-84
2022/04/03 09:35:18;;;;;;;14.70;12.68;;;3.40;99.90;;;;;;5032289;28;20496;-77
2022/04/03 09:38:07;;;;;;;16.10;11.73;;;3.20;99.90;;;;;;5029403;28;20135;-81
2022/04/03 09:40:35;;;;;;;14.00;12.15;;;2.90;99.90;;;;;;5031687;28;20042;-74
2022/04/03 09:43:21;;;;;;;16.77;11.68;;;3.20;99.90;;;;;;5031051;28;20041;-70
2022/04/03 09:45:50;;;;;;;16.73;11.85;;;3.30;99.90;;;;;;5032551;28;20501;-70
2022/04/03 09:48:40;;;;;;;16.02;11.90;;;2.90;99.90;;;;;;5029306;28;20131;-73
2022/04/03 09:51:09;;;;;;;14.05;11.18;;;2.20;99.90;;;;;;5008712;28;20088;-72
2022/04/03 09:53:56;;;;;;;13.40;10.98;;;2.10;99.90;;;;;;5012472;28;20137;-72
2022/04/03 09:56:25;;;;;;;13.65;11.20;;;2.20;99.90;;;;;;5015910;28;20506;-72
2022/04/03 09:58:50;;;;;;;14.30;11.25;;;2.10;99.90;;;;;;5011049;28;20068;-72
2022/04/03 10:01:36;;;;;;;16.45;11.77;;;2.10;99.90;;;;;;5012714;28;20038;-71
2022/04/03 10:04:03;;;;;;;14.90;12.05;;;2.00;99.90;;;;;;5012735;28;20121;-72
2022/04/03 10:06:30;;;;;;;13.55;11.02;;;1.80;99.90;;;;;;5014173;28;20123;-71
2022/04/03 10:08:57;;;;;;;14.05;11.63;;;2.20;99.90;;;;;;5015597;28;20079;-71
2022/04/03 10:11:23;;;;;;;16.45;11.50;;;2.30;99.90;;;;;;5004702;28;20049;-72
2022/04/03 10:13:49;;;;;;;15.27;12.15;;;2.20;99.90;;;;;;5012073;28;20050;-72
2022/04/03 10:16:17;;;;;;;13.80;11.48;;;2.60;99.90;;;;;;5012196;28;20044;-72
2022/04/03 10:18:44;;;;;;;12.98;10.98;;;2.80;99.90;;;;;;5012100;28;20049;-70
2022/04/03 10:21:25;;;;;;;13.93;11.35;;;2.70;99.90;;;;;;5012130;28;20096;-71
2022/04/03 10:23:57;;;;;;;12.57;10.55;;;2.90;99.90;;;;;;5012606;28;20037;-70
2022/04/03 10:26:23;;;;;;;13.02;9.27;;;2.60;99.90;;;;;;5006571;28;20041;-72
2022/04/03 10:28:54;;;;;;;13.48;10.05;;;2.40;99.90;;;;;;5011998;28;20053;-71
2022/04/03 10:31:20;;;;;;;12.60;10.10;;;2.80;99.90;;;;;;5012377;28;20089;-71
2022/04/03 10:33:51;;;;;;;14.32;11.32;;;2.90;99.90;;;;;;5012517;28;20057;-72
2022/04/03 10:36:30;;;;;;;16.98;10.98;;;3.00;99.90;;;;;;5011752;28;20034;-70
2022/04/03 10:39:09;;;;;;;14.95;11.10;;;2.60;99.90;;;;;;5013017;28;20064;-71
2022/04/03 10:41:39;;;;;;;14.55;11.02;;;2.50;99.90;;;;;;5011611;28;20528;-72
2022/04/03 10:44:21;;;;;;;15.90;10.43;;;2.60;99.90;;;;;;5011294;28;20481;-70
2022/04/03 10:47:06;;;;;;;13.15;9.75;;;2.50;99.90;;;;;;5010931;28;20056;-72
2022/04/03 10:49:37;;;;;;;15.50;11.57;;;2.50;99.90;;;;;;5030231;28;20152;-70
2022/04/03 10:52:06;;;;;;;11.85;9.73;;;2.50;99.90;;;;;;5051748;28;20033;-72
2022/04/03 10:54:48;;;;;;;17.63;9.82;;;2.90;99.90;;;;;;5042864;28;20125;-73
2022/04/03 10:57:35;;;;;;;12.70;9.98;;;3.10;99.90;;;;;;5032764;28;20378;-72
2022/04/03 11:00:13;;;;;;;12.45;10.15;;;2.80;99.90;;;;;;5011802;28;20034;-71
2022/04/03 11:02:43;;;;;;;12.00;9.27;;;3.20;99.90;;;;;;5012618;28;20046;-73
2022/04/03 11:05:22;;;;;;;11.45;9.23;;;3.80;99.90;;;;;;5011596;28;20117;-71
2022/04/03 11:07:48;;;;;;;13.25;9.68;;;3.50;99.90;;;;;;5010882;28;20060;-73
2022/04/03 11:10:15;;;;;;;10.85;8.73;;;3.40;99.90;;;;;;5011296;28;20049;-73
2022/04/03 11:13:05;;;;;;;12.82;9.52;;;3.10;99.90;;;;;;5012261;28;20054;-72
2022/04/03 11:15:45;;;;;;;11.87;9.43;;;3.00;99.90;;;;;;5019389;28;20048;-73
2022/04/03 11:18:48;;;;;;;13.15;9.20;;;2.90;99.90;;;;;;5031981;28;20273;-73
2022/04/03 11:21:28;;;;;;;11.27;8.93;;;3.00;99.90;;;;;;5030747;28;20049;-73
2022/04/03 11:24:15;;;;;;;10.90;8.83;;;3.30;99.90;;;;;;5031152;28;20055;-70
2022/04/03 11:26:43;;;;;;;10.98;8.98;;;3.40;99.90;;;;;;5012710;28;20073;-72
2022/04/03 11:29:10;;;;;;;13.07;9.55;;;3.70;99.90;;;;;;5030806;28;20048;-72
2022/04/03 11:31:38;;;;;;;13.02;8.77;;;3.60;99.90;;;;;;5030693;28;20037;-72
2022/04/03 11:34:07;;;;;;;13.05;9.57;;;3.20;99.90;;;;;;5030269;28;20500;-72
2022/04/03 11:36:33;;;;;;;12.60;9.68;;;3.10;99.90;;;;;;5030153;28;20045;-71
2022/04/03 11:39:01;;;;;;;10.63;8.73;;;2.90;99.90;;;;;;5029824;28;20052;-69
2022/04/03 11:41:31;;;;;;;10.75;8.73;;;2.70;99.90;;;;;;5030130;28;20038;-71
2022/04/03 11:44:00;;;;;;;;;;;2.70;99.90;;;;;;5031032;28;20120;-71
2022/04/03 11:46:29;;;;;;;15.00;10.15;;;2.70;99.90;;;;;;5029833;28;19909;-71
2022/04/03 11:48:56;;;;;;;12.15;9.13;;;2.90;99.90;;;;;;5040580;28;20036;-71
2022/04/03 11:51:22;;;;;;;188.25;91.70;;;2.80;99.90;;;;;;5040880;28;20493;-71
2022/04/03 11:53:56;;;;;;;14.88;10.50;;;3.20;99.90;;;;;;5030121;28;20053;-72
2022/04/03 11:56:22;;;;;;;97.43;49.45;;;3.30;99.90;;;;;;5029434;28;20069;-71
2022/04/03 11:58:53;;;;;;;12.20;9.63;;;3.00;99.90;;;;;;5028500;28;20525;-71
2022/04/03 12:01:30;;;;;;;12.52;9.30;;;2.90;99.90;;;;;;5033167;28;20501;-71
2022/04/03 12:04:02;;;;;;;13.15;9.05;;;2.90;99.90;;;;;;5045696;28;20532;-70
2022/04/03 12:06:31;;;;;;;11.63;9.25;;;2.90;99.90;;;;;;5031015;28;20060;-72
2022/04/03 12:08:58;;;;;;;11.50;8.98;;;3.00;99.90;;;;;;5032374;28;20076;-71
2022/04/03 12:11:29;;;;;;;10.90;8.55;;;3.20;99.90;;;;;;5029537;28;20524;-71
2022/04/03 12:14:00;;;;;;;10.48;8.68;;;3.60;99.90;;;;;;5027810;28;20509;-71
2022/04/03 12:16:40;;;;;;;12.88;9.75;;;3.50;99.90;;;;;;5029895;28;20052;-71
2022/04/03 12:19:15;;;;;;;10.73;8.88;;;3.50;99.90;;;;;;5030090;28;20041;-71
2022/04/03 12:21:45;;;;;;;11.60;9.13;;;3.40;99.90;;;;;;5030373;28;20034;-71
2022/04/03 12:24:16;;;;;;;14.15;9.95;;;3.60;99.90;;;;;;5027631;28;20046;-72
2022/04/03 12:26:49;;;;;;;11.75;8.85;;;3.60;99.90;;;;;;5029442;28;20033;-71
2022/04/03 12:29:16;;;;;;;10.38;8.50;;;3.20;99.90;;;;;;5028078;28;20045;-71
2022/04/03 12:31:42;;;;;;;10.68;8.68;;;3.00;99.90;;;;;;5033965;28;20073;-72
2022/04/03 12:34:15;;;;;;;13.23;9.00;;;2.90;99.90;;;;;;5033461;28;20099;-71
2022/04/03 12:36:50;;;;;;;10.15;8.82;;;3.00;99.90;;;;;;5034739;28;20045;-70
2022/04/03 12:39:42;;;;;;;11.55;8.52;;;3.10;99.90;;;;;;5016287;28;20084;-71
2022/04/03 12:42:13;;;;;;;12.90;8.80;;;3.00;99.90;;;;;;5034042;28;20037;-71
2022/04/03 12:44:46;;;;;;;12.32;9.00;;;3.30;99.90;;;;;;5031520;28;20033;-71